sensor_id;sensor_type;location;lat;lon;timestamp;P1;durP1;ratioP1;P2;durP2;ratioP2
57567;SDS011;43403;51.948;5.922;2023-03-14T00:00:58;7.63;;;2.05;;
57567;SDS011;43403;51.948;5.922;2023-03-14T00:03:25;6.32;;;1.95;;
57567;SDS011;43403;51.948;5.922;2023-03-14T00:05:54;7.10;;;2.47;;
57567;SDS011;43403;51.948;5.922;2023-03-14T00:08:20;6.18;;;1.85;;
57567;SDS011;43403;51.948;5.922;2023-03-14T00:10:47;4.22;;;1.55;;
57567;SDS011;43403;51.948;5.922;2023-03-14T00:13:14;9.55;;;2.08;;
57567;SDS011;43403;51.948;5.922;2023-03-14T00:15:40;10.80;;;2.38;;
57567;SDS011;43403;51.948;5.922;2023-03-14T00:18:07;7.47;;;2.00;;
57567;SDS011;43403;51.948;5.922;2023-03-14T00:20:33;6.45;;;1.80;;
57567;SDS011;43403;51.948;5.922;2023-03-14T00:23:00;13.45;;;2.00;;
57567;SDS011;43403;51.948;5.922;2023-03-14T00:25:28;5.93;;;1.73;;
57567;SDS011;43403;51.948;5.922;2023-03-14T00:27:55;7.32;;;2.30;;
57567;SDS011;43403;51.948;5.922;2023-03-14T00:30:21;7.25;;;1.52;;
57567;SDS011;43403;51.948;5.922;2023-03-14T00:32:48;6.43;;;1.83;;
57567;SDS011;43403;51.948;5.922;2023-03-14T00:35:14;5.10;;;1.52;;
57567;SDS011;43403;51.948;5.922;2023-03-14T00:37:41;5.40;;;1.80;;
57567;SDS011;43403;51.948;5.922;2023-03-14T00:40:08;9.75;;;1.65;;
57567;SDS011;43403;51.948;5.922;2023-03-14T00:42:35;6.75;;;1.67;;
57567;SDS011;43403;51.948;5.922;2023-03-14T00:45:02;6.28;;;1.60;;
57567;SDS011;43403;51.948;5.922;2023-03-14T00:47:30;7.88;;;1.88;;
57567;SDS011;43403;51.948;5.922;2023-03-14T00:49:56;7.30;;;1.40;;
57567;SDS011;43403;51.948;5.922;2023-03-14T00:52:23;6.57;;;1.58;;
57567;SDS011;43403;51.948;5.922;2023-03-14T00:54:49;8.77;;;1.85;;
57567;SDS011;43403;51.948;5.922;2023-03-14T00:57:16;6.68;;;1.48;;
57567;SDS011;43403;51.948;5.922;2023-03-14T00:59:43;4.18;;;1.30;;
57567;SDS011;43403;51.948;5.922;2023-03-14T01:02:09;8.73;;;1.35;;
57567;SDS011;43403;51.948;5.922;2023-03-14T01:04:36;7.32;;;1.65;;
57567;SDS011;43403;51.948;5.922;2023-03-14T01:07:03;5.23;;;1.13;;
57567;SDS011;43403;51.948;5.922;2023-03-14T01:09:30;7.15;;;1.38;;
57567;SDS011;43403;51.948;5.922;2023-03-14T01:11:57;3.75;;;1.38;;
57567;SDS011;43403;51.948;5.922;2023-03-14T01:14:23;5.25;;;1.50;;
57567;SDS011;43403;51.948;5.922;2023-03-14T01:16:50;8.15;;;3.40;;
57567;SDS011;43403;51.948;5.922;2023-03-14T01:19:17;4.43;;;1.27;;
57567;SDS011;43403;51.948;5.922;2023-03-14T01:21:43;5.85;;;1.63;;
57567;SDS011;43403;51.948;5.922;2023-03-14T01:24:10;8.00;;;1.40;;
57567;SDS011;43403;51.948;5.922;2023-03-14T01:26:37;6.30;;;1.63;;
57567;SDS011;43403;51.948;5.922;2023-03-14T01:29:04;9.88;;;1.73;;
57567;SDS011;43403;51.948;5.922;2023-03-14T01:31:30;7.25;;;1.75;;
57567;SDS011;43403;51.948;5.922;2023-03-14T01:33:57;6.40;;;1.73;;
57567;SDS011;43403;51.948;5.922;2023-03-14T01:36:24;8.23;;;2.08;;
57567;SDS011;43403;51.948;5.922;2023-03-14T01:38:50;7.03;;;1.20;;
57567;SDS011;43403;51.948;5.922;2023-03-14T01:41:19;10.38;;;1.70;;
57567;SDS011;43403;51.948;5.922;2023-03-14T01:43:48;6.10;;;1.50;;
57567;SDS011;43403;51.948;5.922;2023-03-14T01:46:35;9.13;;;1.77;;
57567;SDS011;43403;51.948;5.922;2023-03-14T01:49:07;6.78;;;1.63;;
57567;SDS011;43403;51.948;5.922;2023-03-14T01:51:49;6.05;;;1.35;;
57567;SDS011;43403;51.948;5.922;2023-03-14T01:54:24;6.95;;;1.40;;
57567;SDS011;43403;51.948;5.922;2023-03-14T01:57:19;8.43;;;1.33;;
57567;SDS011;43403;51.948;5.922;2023-03-14T01:59:57;4.53;;;0.88;;
57567;SDS011;43403;51.948;5.922;2023-03-14T02:02:26;8.63;;;1.45;;
57567;SDS011;43403;51.948;5.922;2023-03-14T02:04:54;8.60;;;1.40;;
57567;SDS011;43403;51.948;5.922;2023-03-14T02:07:23;10.02;;;1.88;;
57567;SDS011;43403;51.948;5.922;2023-03-14T02:09:58;8.48;;;1.17;;
57567;SDS011;43403;51.948;5.922;2023-03-14T02:12:27;6.10;;;1.30;;
57567;SDS011;43403;51.948;5.922;2023-03-14T02:14:54;9.32;;;1.30;;
57567;SDS011;43403;51.948;5.922;2023-03-14T02:17:20;9.35;;;1.77;;
57567;SDS011;43403;51.948;5.922;2023-03-14T02:22:42;5.95;;;1.00;;
57567;SDS011;43403;51.948;5.922;2023-03-14T02:28:13;5.25;;;1.25;;
57567;SDS011;43403;51.948;5.922;2023-03-14T02:30:41;9.17;;;1.30;;
57567;SDS011;43403;51.948;5.922;2023-03-14T02:33:12;9.30;;;1.48;;
57567;SDS011;43403;51.948;5.922;2023-03-14T02:35:51;8.82;;;1.30;;
57567;SDS011;43403;51.948;5.922;2023-03-14T02:41:14;7.80;;;1.30;;
57567;SDS011;43403;51.948;5.922;2023-03-14T02:43:41;5.00;;;1.10;;
57567;SDS011;43403;51.948;5.922;2023-03-14T02:46:08;7.03;;;1.60;;
57567;SDS011;43403;51.948;5.922;2023-03-14T02:49:20;8.52;;;1.27;;
57567;SDS011;43403;51.948;5.922;2023-03-14T02:51:29;8.25;;;1.55;;
57567;SDS011;43403;51.948;5.922;2023-03-14T02:53:56;6.43;;;1.40;;
57567;SDS011;43403;51.948;5.922;2023-03-14T02:56:22;10.05;;;1.25;;
57567;SDS011;43403;51.948;5.922;2023-03-14T02:58:49;11.85;;;1.35;;
57567;SDS011;43403;51.948;5.922;2023-03-14T03:01:16;7.90;;;1.50;;
57567;SDS011;43403;51.948;5.922;2023-03-14T03:03:43;8.05;;;1.45;;
57567;SDS011;43403;51.948;5.922;2023-03-14T03:06:09;6.72;;;1.20;;
57567;SDS011;43403;51.948;5.922;2023-03-14T03:08:36;9.35;;;1.60;;
57567;SDS011;43403;51.948;5.922;2023-03-14T03:11:03;10.15;;;2.05;;
57567;SDS011;43403;51.948;5.922;2023-03-14T03:13:31;4.07;;;1.30;;
57567;SDS011;43403;51.948;5.922;2023-03-14T03:15:57;4.28;;;1.42;;
57567;SDS011;43403;51.948;5.922;2023-03-14T03:18:24;9.05;;;1.40;;
57567;SDS011;43403;51.948;5.922;2023-03-14T03:20:50;5.60;;;1.75;;
57567;SDS011;43403;51.948;5.922;2023-03-14T03:23:17;10.90;;;1.40;;
57567;SDS011;43403;51.948;5.922;2023-03-14T03:25:47;8.13;;;1.95;;
57567;SDS011;43403;51.948;5.922;2023-03-14T03:28:18;7.50;;;1.27;;
57567;SDS011;43403;51.948;5.922;2023-03-14T03:30:45;9.93;;;1.30;;
57567;SDS011;43403;51.948;5.922;2023-03-14T03:33:12;9.05;;;1.88;;
57567;SDS011;43403;51.948;5.922;2023-03-14T03:35:45;4.30;;;1.23;;
57567;SDS011;43403;51.948;5.922;2023-03-14T03:38:14;8.35;;;1.67;;
57567;SDS011;43403;51.948;5.922;2023-03-14T03:40:42;8.30;;;1.52;;
57567;SDS011;43403;51.948;5.922;2023-03-14T03:43:08;8.70;;;1.80;;
57567;SDS011;43403;51.948;5.922;2023-03-14T03:45:35;9.50;;;1.85;;
57567;SDS011;43403;51.948;5.922;2023-03-14T03:48:02;15.60;;;2.28;;
57567;SDS011;43403;51.948;5.922;2023-03-14T03:50:28;7.47;;;1.77;;
57567;SDS011;43403;51.948;5.922;2023-03-14T03:52:55;9.23;;;1.58;;
57567;SDS011;43403;51.948;5.922;2023-03-14T03:55:21;7.97;;;1.65;;
57567;SDS011;43403;51.948;5.922;2023-03-14T03:57:48;10.70;;;1.90;;
57567;SDS011;43403;51.948;5.922;2023-03-14T04:00:15;9.10;;;2.30;;
57567;SDS011;43403;51.948;5.922;2023-03-14T04:02:41;12.55;;;2.42;;
57567;SDS011;43403;51.948;5.922;2023-03-14T04:05:08;15.27;;;2.25;;
57567;SDS011;43403;51.948;5.922;2023-03-14T04:07:35;10.38;;;1.70;;
57567;SDS011;43403;51.948;5.922;2023-03-14T04:10:01;10.43;;;1.45;;
57567;SDS011;43403;51.948;5.922;2023-03-14T04:12:28;9.43;;;1.48;;
57567;SDS011;43403;51.948;5.922;2023-03-14T04:14:54;5.35;;;1.23;;
57567;SDS011;43403;51.948;5.922;2023-03-14T04:17:21;5.97;;;1.45;;
57567;SDS011;43403;51.948;5.922;2023-03-14T04:19:48;10.38;;;1.83;;
57567;SDS011;43403;51.948;5.922;2023-03-14T04:22:17;9.38;;;2.28;;
57567;SDS011;43403;51.948;5.922;2023-03-14T04:24:44;9.38;;;1.38;;
57567;SDS011;43403;51.948;5.922;2023-03-14T04:27:10;9.40;;;1.60;;
57567;SDS011;43403;51.948;5.922;2023-03-14T04:29:37;10.35;;;2.28;;
57567;SDS011;43403;51.948;5.922;2023-03-14T04:32:03;7.90;;;1.52;;
57567;SDS011;43403;51.948;5.922;2023-03-14T04:34:30;10.52;;;1.50;;
57567;SDS011;43403;51.948;5.922;2023-03-14T04:36:56;7.93;;;1.75;;
57567;SDS011;43403;51.948;5.922;2023-03-14T04:39:23;9.73;;;1.42;;
57567;SDS011;43403;51.948;5.922;2023-03-14T04:41:49;7.63;;;1.48;;
57567;SDS011;43403;51.948;5.922;2023-03-14T04:44:16;5.72;;;1.35;;
57567;SDS011;43403;51.948;5.922;2023-03-14T04:46:43;10.15;;;2.03;;
57567;SDS011;43403;51.948;5.922;2023-03-14T04:49:09;8.43;;;1.48;;
57567;SDS011;43403;51.948;5.922;2023-03-14T04:51:36;6.25;;;1.20;;
57567;SDS011;43403;51.948;5.922;2023-03-14T04:54:02;5.90;;;1.10;;
57567;SDS011;43403;51.948;5.922;2023-03-14T04:56:29;7.25;;;1.30;;
57567;SDS011;43403;51.948;5.922;2023-03-14T04:58:55;9.45;;;1.65;;
57567;SDS011;43403;51.948;5.922;2023-03-14T05:01:22;4.97;;;1.05;;
57567;SDS011;43403;51.948;5.922;2023-03-14T05:03:49;5.88;;;1.10;;
57567;SDS011;43403;51.948;5.922;2023-03-14T05:06:16;5.63;;;1.10;;
57567;SDS011;43403;51.948;5.922;2023-03-14T05:08:43;4.32;;;0.90;;
57567;SDS011;43403;51.948;5.922;2023-03-14T05:11:09;8.77;;;1.30;;
57567;SDS011;43403;51.948;5.922;2023-03-14T05:13:36;3.00;;;1.10;;
57567;SDS011;43403;51.948;5.922;2023-03-14T05:16:06;7.97;;;1.70;;
57567;SDS011;43403;51.948;5.922;2023-03-14T05:18:34;5.72;;;1.20;;
57567;SDS011;43403;51.948;5.922;2023-03-14T05:21:00;4.93;;;1.17;;
57567;SDS011;43403;51.948;5.922;2023-03-14T05:23:27;7.95;;;1.27;;
57567;SDS011;43403;51.948;5.922;2023-03-14T05:25:54;4.32;;;1.20;;
57567;SDS011;43403;51.948;5.922;2023-03-14T05:28:21;4.28;;;0.98;;
57567;SDS011;43403;51.948;5.922;2023-03-14T05:30:47;6.05;;;1.02;;
57567;SDS011;43403;51.948;5.922;2023-03-14T05:33:14;7.25;;;1.20;;
57567;SDS011;43403;51.948;5.922;2023-03-14T05:35:41;7.00;;;0.98;;
57567;SDS011;43403;51.948;5.922;2023-03-14T05:38:09;6.40;;;1.08;;
57567;SDS011;43403;51.948;5.922;2023-03-14T05:40:35;6.63;;;1.65;;
57567;SDS011;43403;51.948;5.922;2023-03-14T05:43:02;6.80;;;1.33;;
57567;SDS011;43403;51.948;5.922;2023-03-14T05:45:28;7.68;;;1.30;;
57567;SDS011;43403;51.948;5.922;2023-03-14T05:47:55;5.00;;;1.08;;
57567;SDS011;43403;51.948;5.922;2023-03-14T05:50:22;5.55;;;0.90;;
57567;SDS011;43403;51.948;5.922;2023-03-14T05:52:48;4.55;;;1.10;;
57567;SDS011;43403;51.948;5.922;2023-03-14T05:55:15;9.48;;;1.90;;
57567;SDS011;43403;51.948;5.922;2023-03-14T05:57:41;4.95;;;1.30;;
57567;SDS011;43403;51.948;5.922;2023-03-14T06:00:08;5.25;;;1.23;;
57567;SDS011;43403;51.948;5.922;2023-03-14T06:02:35;4.18;;;1.20;;
57567;SDS011;43403;51.948;5.922;2023-03-14T06:05:01;7.95;;;1.27;;
57567;SDS011;43403;51.948;5.922;2023-03-14T06:07:28;5.15;;;1.40;;
57567;SDS011;43403;51.948;5.922;2023-03-14T06:09:55;6.18;;;1.27;;
57567;SDS011;43403;51.948;5.922;2023-03-14T06:12:21;4.70;;;1.00;;
57567;SDS011;43403;51.948;5.922;2023-03-14T06:14:48;3.83;;;1.30;;
57567;SDS011;43403;51.948;5.922;2023-03-14T06:17:14;4.95;;;1.58;;
57567;SDS011;43403;51.948;5.922;2023-03-14T06:19:41;4.13;;;1.55;;
57567;SDS011;43403;51.948;5.922;2023-03-14T06:22:07;4.07;;;1.73;;
57567;SDS011;43403;51.948;5.922;2023-03-14T06:24:34;7.53;;;1.50;;
57567;SDS011;43403;51.948;5.922;2023-03-14T06:27:01;2.65;;;1.42;;
57567;SDS011;43403;51.948;5.922;2023-03-14T06:29:29;5.07;;;1.52;;
57567;SDS011;43403;51.948;5.922;2023-03-14T06:31:56;6.25;;;1.60;;
57567;SDS011;43403;51.948;5.922;2023-03-14T06:34:22;3.97;;;1.50;;
57567;SDS011;43403;51.948;5.922;2023-03-14T06:36:49;4.38;;;1.60;;
57567;SDS011;43403;51.948;5.922;2023-03-14T06:39:16;4.15;;;1.50;;
57567;SDS011;43403;51.948;5.922;2023-03-14T06:41:42;6.10;;;1.50;;
57567;SDS011;43403;51.948;5.922;2023-03-14T06:44:09;6.70;;;1.80;;
57567;SDS011;43403;51.948;5.922;2023-03-14T06:46:35;6.03;;;2.00;;
57567;SDS011;43403;51.948;5.922;2023-03-14T06:49:02;6.30;;;1.73;;
57567;SDS011;43403;51.948;5.922;2023-03-14T06:51:28;5.65;;;2.10;;
57567;SDS011;43403;51.948;5.922;2023-03-14T06:53:55;4.85;;;1.90;;
57567;SDS011;43403;51.948;5.922;2023-03-14T06:56:22;6.70;;;1.98;;
57567;SDS011;43403;51.948;5.922;2023-03-14T06:58:52;4.90;;;2.10;;
57567;SDS011;43403;51.948;5.922;2023-03-14T07:01:28;5.85;;;2.10;;
57567;SDS011;43403;51.948;5.922;2023-03-14T07:03:56;5.78;;;2.28;;
57567;SDS011;43403;51.948;5.922;2023-03-14T07:06:23;8.20;;;2.05;;
57567;SDS011;43403;51.948;5.922;2023-03-14T07:08:51;6.38;;;2.20;;
57567;SDS011;43403;51.948;5.922;2023-03-14T07:11:20;6.95;;;2.15;;
57567;SDS011;43403;51.948;5.922;2023-03-14T07:13:49;4.80;;;1.92;;
57567;SDS011;43403;51.948;5.922;2023-03-14T07:16:15;4.25;;;2.50;;
57567;SDS011;43403;51.948;5.922;2023-03-14T07:18:42;4.85;;;2.58;;
57567;SDS011;43403;51.948;5.922;2023-03-14T07:21:09;4.90;;;2.42;;
57567;SDS011;43403;51.948;5.922;2023-03-14T07:23:36;7.07;;;3.03;;
57567;SDS011;43403;51.948;5.922;2023-03-14T07:26:02;7.43;;;3.30;;
57567;SDS011;43403;51.948;5.922;2023-03-14T07:28:29;8.85;;;2.58;;
57567;SDS011;43403;51.948;5.922;2023-03-14T07:30:59;11.27;;;3.20;;
57567;SDS011;43403;51.948;5.922;2023-03-14T07:33:29;6.10;;;2.83;;
57567;SDS011;43403;51.948;5.922;2023-03-14T07:36:02;2.97;;;1.95;;
57567;SDS011;43403;51.948;5.922;2023-03-14T07:38:29;4.57;;;1.85;;
57567;SDS011;43403;51.948;5.922;2023-03-14T07:40:59;4.13;;;1.95;;
57567;SDS011;43403;51.948;5.922;2023-03-14T07:43:26;3.60;;;1.80;;
57567;SDS011;43403;51.948;5.922;2023-03-14T07:45:54;3.10;;;1.60;;
57567;SDS011;43403;51.948;5.922;2023-03-14T07:48:24;5.07;;;1.70;;
57567;SDS011;43403;51.948;5.922;2023-03-14T07:53:20;2.33;;;0.82;;
57567;SDS011;43403;51.948;5.922;2023-03-14T07:55:50;4.55;;;1.30;;
57567;SDS011;43403;51.948;5.922;2023-03-14T07:58:18;2.97;;;0.80;;
57567;SDS011;43403;51.948;5.922;2023-03-14T08:00:45;3.22;;;1.10;;
57567;SDS011;43403;51.948;5.922;2023-03-14T08:03:12;1.13;;;0.88;;
57567;SDS011;43403;51.948;5.922;2023-03-14T08:05:38;4.88;;;1.00;;
57567;SDS011;43403;51.948;5.922;2023-03-14T08:08:06;1.70;;;0.85;;
57567;SDS011;43403;51.948;5.922;2023-03-14T08:10:32;2.85;;;0.85;;
57567;SDS011;43403;51.948;5.922;2023-03-14T08:12:59;4.47;;;1.02;;
57567;SDS011;43403;51.948;5.922;2023-03-14T08:15:28;4.70;;;1.00;;
57567;SDS011;43403;51.948;5.922;2023-03-14T08:17:56;2.10;;;1.00;;
57567;SDS011;43403;51.948;5.922;2023-03-14T08:20:24;3.10;;;0.70;;
57567;SDS011;43403;51.948;5.922;2023-03-14T08:22:55;1.77;;;0.60;;
57567;SDS011;43403;51.948;5.922;2023-03-14T08:25:25;2.55;;;0.68;;
57567;SDS011;43403;51.948;5.922;2023-03-14T08:27:53;1.70;;;0.60;;
57567;SDS011;43403;51.948;5.922;2023-03-14T08:30:20;2.75;;;0.70;;
57567;SDS011;43403;51.948;5.922;2023-03-14T08:32:48;1.05;;;0.60;;
57567;SDS011;43403;51.948;5.922;2023-03-14T08:35:15;2.40;;;0.93;;
57567;SDS011;43403;51.948;5.922;2023-03-14T08:37:42;1.85;;;0.65;;
57567;SDS011;43403;51.948;5.922;2023-03-14T08:40:09;2.05;;;1.15;;
57567;SDS011;43403;51.948;5.922;2023-03-14T08:42:37;2.50;;;0.80;;
57567;SDS011;43403;51.948;5.922;2023-03-14T08:45:04;2.08;;;0.80;;
57567;SDS011;43403;51.948;5.922;2023-03-14T08:47:32;0.77;;;0.50;;
57567;SDS011;43403;51.948;5.922;2023-03-14T08:49:59;1.88;;;0.40;;
57567;SDS011;43403;51.948;5.922;2023-03-14T08:52:26;2.13;;;0.60;;
57567;SDS011;43403;51.948;5.922;2023-03-14T08:54:53;1.98;;;0.82;;
57567;SDS011;43403;51.948;5.922;2023-03-14T08:57:19;2.25;;;0.63;;
57567;SDS011;43403;51.948;5.922;2023-03-14T08:59:47;5.97;;;0.93;;
57567;SDS011;43403;51.948;5.922;2023-03-14T09:02:14;3.45;;;0.57;;
57567;SDS011;43403;51.948;5.922;2023-03-14T09:04:40;2.53;;;0.57;;
57567;SDS011;43403;51.948;5.922;2023-03-14T09:07:07;8.50;;;0.98;;
57567;SDS011;43403;51.948;5.922;2023-03-14T09:09:34;5.03;;;0.80;;
57567;SDS011;43403;51.948;5.922;2023-03-14T09:12:00;1.90;;;0.60;;
57567;SDS011;43403;51.948;5.922;2023-03-14T09:14:27;5.57;;;0.73;;
57567;SDS011;43403;51.948;5.922;2023-03-14T09:16:53;3.45;;;0.90;;
57567;SDS011;43403;51.948;5.922;2023-03-14T09:19:20;3.33;;;0.50;;
57567;SDS011;43403;51.948;5.922;2023-03-14T09:21:47;5.93;;;0.70;;
57567;SDS011;43403;51.948;5.922;2023-03-14T09:24:13;3.75;;;0.70;;
57567;SDS011;43403;51.948;5.922;2023-03-14T09:26:40;3.55;;;0.75;;
57567;SDS011;43403;51.948;5.922;2023-03-14T09:29:06;2.63;;;0.60;;
57567;SDS011;43403;51.948;5.922;2023-03-14T09:31:33;1.70;;;0.50;;
57567;SDS011;43403;51.948;5.922;2023-03-14T09:34:01;4.68;;;0.55;;
57567;SDS011;43403;51.948;5.922;2023-03-14T09:36:27;2.70;;;0.50;;
57567;SDS011;43403;51.948;5.922;2023-03-14T09:38:54;5.00;;;0.55;;
57567;SDS011;43403;51.948;5.922;2023-03-14T09:41:23;2.83;;;0.73;;
57567;SDS011;43403;51.948;5.922;2023-03-14T09:43:57;0.98;;;0.45;;
57567;SDS011;43403;51.948;5.922;2023-03-14T09:46:31;2.03;;;0.40;;
57567;SDS011;43403;51.948;5.922;2023-03-14T09:49:01;3.72;;;0.40;;
57567;SDS011;43403;51.948;5.922;2023-03-14T09:51:28;2.38;;;0.52;;
57567;SDS011;43403;51.948;5.922;2023-03-14T09:53:55;1.52;;;0.40;;
57567;SDS011;43403;51.948;5.922;2023-03-14T09:56:26;3.65;;;1.17;;
57567;SDS011;43403;51.948;5.922;2023-03-14T09:58:58;1.75;;;0.40;;
57567;SDS011;43403;51.948;5.922;2023-03-14T10:01:28;4.50;;;0.70;;
57567;SDS011;43403;51.948;5.922;2023-03-14T10:04:00;3.28;;;1.00;;
57567;SDS011;43403;51.948;5.922;2023-03-14T10:06:31;6.10;;;0.82;;
57567;SDS011;43403;51.948;5.922;2023-03-14T10:08:58;4.32;;;0.60;;
57567;SDS011;43403;51.948;5.922;2023-03-14T10:11:25;8.55;;;1.00;;
57567;SDS011;43403;51.948;5.922;2023-03-14T10:16:39;8.13;;;0.98;;
57567;SDS011;43403;51.948;5.922;2023-03-14T10:19:15;5.00;;;0.70;;
57567;SDS011;43403;51.948;5.922;2023-03-14T10:21:43;5.35;;;0.90;;
57567;SDS011;43403;51.948;5.922;2023-03-14T10:24:21;5.45;;;1.52;;
57567;SDS011;43403;51.948;5.922;2023-03-14T10:26:48;6.45;;;0.85;;
57567;SDS011;43403;51.948;5.922;2023-03-14T10:29:18;3.63;;;0.93;;
57567;SDS011;43403;51.948;5.922;2023-03-14T10:34:45;7.32;;;1.17;;
57567;SDS011;43403;51.948;5.922;2023-03-14T10:37:31;8.20;;;1.50;;
57567;SDS011;43403;51.948;5.922;2023-03-14T10:39:58;9.68;;;1.20;;
57567;SDS011;43403;51.948;5.922;2023-03-14T10:42:31;8.50;;;1.08;;
57567;SDS011;43403;51.948;5.922;2023-03-14T10:45:02;10.57;;;1.67;;
57567;SDS011;43403;51.948;5.922;2023-03-14T10:47:31;10.93;;;1.85;;
57567;SDS011;43403;51.948;5.922;2023-03-14T10:50:18;12.88;;;2.08;;
57567;SDS011;43403;51.948;5.922;2023-03-14T10:52:49;11.27;;;1.85;;
57567;SDS011;43403;51.948;5.922;2023-03-14T10:55:27;12.65;;;1.70;;
57567;SDS011;43403;51.948;5.922;2023-03-14T10:57:54;9.20;;;1.20;;
57567;SDS011;43403;51.948;5.922;2023-03-14T11:00:21;16.48;;;1.92;;
57567;SDS011;43403;51.948;5.922;2023-03-14T11:08:27;9.05;;;1.45;;
57567;SDS011;43403;51.948;5.922;2023-03-14T11:11:01;8.77;;;1.33;;
57567;SDS011;43403;51.948;5.922;2023-03-14T11:14:01;18.55;;;1.92;;
57567;SDS011;43403;51.948;5.922;2023-03-14T11:19:29;13.23;;;1.50;;
57567;SDS011;43403;51.948;5.922;2023-03-14T11:24:49;13.77;;;2.10;;
57567;SDS011;43403;51.948;5.922;2023-03-14T11:27:36;10.02;;;1.38;;
57567;SDS011;43403;51.948;5.922;2023-03-14T11:30:14;11.35;;;1.55;;
57567;SDS011;43403;51.948;5.922;2023-03-14T11:32:45;15.60;;;1.90;;
57567;SDS011;43403;51.948;5.922;2023-03-14T11:35:30;10.60;;;1.55;;
57567;SDS011;43403;51.948;5.922;2023-03-14T11:45:35;15.32;;;2.03;;
57567;SDS011;43403;51.948;5.922;2023-03-14T11:50:32;16.25;;;2.15;;
57567;SDS011;43403;51.948;5.922;2023-03-14T11:53:03;13.88;;;2.35;;
57567;SDS011;43403;51.948;5.922;2023-03-14T11:55:36;19.40;;;3.10;;
57567;SDS011;43403;51.948;5.922;2023-03-14T12:00:53;11.25;;;2.03;;
57567;SDS011;43403;51.948;5.922;2023-03-14T12:08:58;16.92;;;2.85;;
57567;SDS011;43403;51.948;5.922;2023-03-14T12:11:31;15.50;;;2.55;;
57567;SDS011;43403;51.948;5.922;2023-03-14T12:14:01;17.55;;;2.45;;
57567;SDS011;43403;51.948;5.922;2023-03-14T12:16:33;18.00;;;2.22;;
57567;SDS011;43403;51.948;5.922;2023-03-14T12:24:27;12.23;;;1.73;;
57567;SDS011;43403;51.948;5.922;2023-03-14T12:27:00;13.27;;;2.17;;
57567;SDS011;43403;51.948;5.922;2023-03-14T12:29:28;13.40;;;1.85;;
57567;SDS011;43403;51.948;5.922;2023-03-14T12:34:49;10.40;;;1.50;;
57567;SDS011;43403;51.948;5.922;2023-03-14T12:40:01;12.23;;;1.92;;
57567;SDS011;43403;51.948;5.922;2023-03-14T12:42:42;5.65;;;1.10;;
57567;SDS011;43403;51.948;5.922;2023-03-14T12:48:09;7.60;;;1.35;;
57567;SDS011;43403;51.948;5.922;2023-03-14T13:01:45;10.55;;;1.77;;
57567;SDS011;43403;51.948;5.922;2023-03-14T13:04:14;9.95;;;1.50;;
57567;SDS011;43403;51.948;5.922;2023-03-14T13:06:54;7.30;;;1.33;;
57567;SDS011;43403;51.948;5.922;2023-03-14T13:11:56;11.57;;;1.27;;
57567;SDS011;43403;51.948;5.922;2023-03-14T13:14:28;10.52;;;1.73;;
57567;SDS011;43403;51.948;5.922;2023-03-14T13:19:48;7.57;;;1.15;;
57567;SDS011;43403;51.948;5.922;2023-03-14T13:22:26;13.02;;;1.73;;
57567;SDS011;43403;51.948;5.922;2023-03-14T13:25:01;8.75;;;1.40;;
57567;SDS011;43403;51.948;5.922;2023-03-14T13:27:30;9.10;;;1.15;;
57567;SDS011;43403;51.948;5.922;2023-03-14T13:30:04;7.25;;;1.50;;
57567;SDS011;43403;51.948;5.922;2023-03-14T13:32:42;6.28;;;1.23;;
57567;SDS011;43403;51.948;5.922;2023-03-14T13:35:15;8.50;;;1.45;;
57567;SDS011;43403;51.948;5.922;2023-03-14T13:38:02;7.45;;;1.17;;
57567;SDS011;43403;51.948;5.922;2023-03-14T13:40:37;13.38;;;1.50;;
57567;SDS011;43403;51.948;5.922;2023-03-14T13:43:05;8.88;;;1.20;;
57567;SDS011;43403;51.948;5.922;2023-03-14T13:48:12;6.38;;;1.10;;
57567;SDS011;43403;51.948;5.922;2023-03-14T13:50:45;6.97;;;1.15;;
57567;SDS011;43403;51.948;5.922;2023-03-14T13:53:19;8.88;;;1.83;;
57567;SDS011;43403;51.948;5.922;2023-03-14T13:55:46;7.57;;;1.20;;
57567;SDS011;43403;51.948;5.922;2023-03-14T13:58:19;5.82;;;1.60;;
57567;SDS011;43403;51.948;5.922;2023-03-14T14:01:34;6.50;;;1.20;;
57567;SDS011;43403;51.948;5.922;2023-03-14T14:03:47;5.97;;;1.08;;
57567;SDS011;43403;51.948;5.922;2023-03-14T14:06:31;9.30;;;0.93;;
57567;SDS011;43403;51.948;5.922;2023-03-14T14:09:04;5.40;;;1.08;;
57567;SDS011;43403;51.948;5.922;2023-03-14T14:14:47;4.63;;;1.63;;
57567;SDS011;43403;51.948;5.922;2023-03-14T14:17:22;7.00;;;1.17;;
57567;SDS011;43403;51.948;5.922;2023-03-14T14:19:52;10.73;;;1.55;;
57567;SDS011;43403;51.948;5.922;2023-03-14T14:22:22;5.78;;;1.20;;
57567;SDS011;43403;51.948;5.922;2023-03-14T14:24:49;6.45;;;1.20;;
57567;SDS011;43403;51.948;5.922;2023-03-14T14:27:33;6.93;;;1.40;;
57567;SDS011;43403;51.948;5.922;2023-03-14T14:32:46;5.47;;;1.17;;
57567;SDS011;43403;51.948;5.922;2023-03-14T14:37:51;5.00;;;0.93;;
57567;SDS011;43403;51.948;5.922;2023-03-14T14:40:22;6.45;;;1.27;;
57567;SDS011;43403;51.948;5.922;2023-03-14T14:42:51;5.47;;;1.10;;
57567;SDS011;43403;51.948;5.922;2023-03-14T14:45:23;5.65;;;0.90;;
57567;SDS011;43403;51.948;5.922;2023-03-14T14:47:54;5.95;;;0.93;;
57567;SDS011;43403;51.948;5.922;2023-03-14T14:53:28;6.65;;;1.10;;
57567;SDS011;43403;51.948;5.922;2023-03-14T14:56:16;6.35;;;1.08;;
57567;SDS011;43403;51.948;5.922;2023-03-14T14:58:49;5.05;;;0.80;;
57567;SDS011;43403;51.948;5.922;2023-03-14T15:01:16;4.95;;;1.10;;
57567;SDS011;43403;51.948;5.922;2023-03-14T15:03:51;5.85;;;1.08;;
57567;SDS011;43403;51.948;5.922;2023-03-14T15:06:19;4.93;;;1.00;;
57567;SDS011;43403;51.948;5.922;2023-03-14T15:08:47;4.90;;;0.90;;
57567;SDS011;43403;51.948;5.922;2023-03-14T15:11:18;5.82;;;1.08;;
57567;SDS011;43403;51.948;5.922;2023-03-14T15:13:49;6.82;;;1.13;;
57567;SDS011;43403;51.948;5.922;2023-03-14T15:16:17;6.05;;;0.80;;
57567;SDS011;43403;51.948;5.922;2023-03-14T15:18:49;6.57;;;1.13;;
57567;SDS011;43403;51.948;5.922;2023-03-14T15:21:19;4.10;;;1.05;;
57567;SDS011;43403;51.948;5.922;2023-03-14T15:23:46;5.28;;;1.20;;
57567;SDS011;43403;51.948;5.922;2023-03-14T15:26:13;8.07;;;0.98;;
57567;SDS011;43403;51.948;5.922;2023-03-14T15:28:43;7.53;;;1.30;;
57567;SDS011;43403;51.948;5.922;2023-03-14T15:31:12;6.07;;;0.98;;
57567;SDS011;43403;51.948;5.922;2023-03-14T15:33:40;4.30;;;0.90;;
57567;SDS011;43403;51.948;5.922;2023-03-14T15:36:15;4.47;;;1.20;;
57567;SDS011;43403;51.948;5.922;2023-03-14T15:41:12;8.57;;;1.00;;
57567;SDS011;43403;51.948;5.922;2023-03-14T15:43:38;7.38;;;1.10;;
57567;SDS011;43403;51.948;5.922;2023-03-14T15:46:05;7.30;;;1.30;;
57567;SDS011;43403;51.948;5.922;2023-03-14T15:48:32;9.30;;;0.90;;
57567;SDS011;43403;51.948;5.922;2023-03-14T15:50:59;9.02;;;1.58;;
57567;SDS011;43403;51.948;5.922;2023-03-14T15:53:25;10.70;;;1.60;;
57567;SDS011;43403;51.948;5.922;2023-03-14T15:55:52;4.03;;;1.25;;
57567;SDS011;43403;51.948;5.922;2023-03-14T15:58:19;8.90;;;1.08;;
57567;SDS011;43403;51.948;5.922;2023-03-14T16:00:47;8.88;;;1.35;;
57567;SDS011;43403;51.948;5.922;2023-03-14T16:03:15;7.97;;;1.23;;
57567;SDS011;43403;51.948;5.922;2023-03-14T16:05:41;7.28;;;1.40;;
57567;SDS011;43403;51.948;5.922;2023-03-14T16:08:08;10.48;;;1.38;;
57567;SDS011;43403;51.948;5.922;2023-03-14T16:10:34;5.68;;;1.15;;
57567;SDS011;43403;51.948;5.922;2023-03-14T16:13:01;9.00;;;1.42;;
57567;SDS011;43403;51.948;5.922;2023-03-14T16:15:28;9.50;;;1.67;;
57567;SDS011;43403;51.948;5.922;2023-03-14T16:17:55;7.68;;;1.38;;
57567;SDS011;43403;51.948;5.922;2023-03-14T16:20:22;8.02;;;1.42;;
57567;SDS011;43403;51.948;5.922;2023-03-14T16:22:49;6.28;;;1.20;;
57567;SDS011;43403;51.948;5.922;2023-03-14T16:25:16;5.22;;;1.55;;
57567;SDS011;43403;51.948;5.922;2023-03-14T16:27:44;10.38;;;1.55;;
57567;SDS011;43403;51.948;5.922;2023-03-14T16:30:11;10.23;;;1.40;;